Time;durP1;ratioP1;P1;durP2;ratioP2;P2;SDS_P1;SDS_P2;PMS_P1;PMS_P2;Temp;Humidity;BMP_temperature;BMP_pressure;BME280_temperature;BME280_humidity;BME280_pressure;Samples;Min_cycle;Max_cycle;Signal;HPM_P1;HPM_P2
2022/12/16 00:02:42;;;;;;;35.97;14.65;;;;;;;;;;12837380;19;20314;-63
2022/12/16 00:06:59;;;;;;;26.38;11.57;;;;;;;;;;12838049;19;20449;-63
2022/12/16 00:11:18;;;;;;;50.72;16.00;;;;;;;;;;12836867;19;20330;-63
2022/12/16 00:15:36;;;;;;;40.10;16.40;;;;;;;;;;12837380;19;20473;-63
2022/12/16 00:19:53;;;;;;;39.77;16.73;;;;;;;;;;12837061;19;20011;-63
2022/12/16 00:24:10;;;;;;;57.05;19.73;;;;;;;;;;12835484;19;20018;-63
2022/12/16 00:28:28;;;;;;;44.15;18.27;;;;;;;;;;12835107;19;20362;-63
2022/12/16 00:32:44;;;;;;;48.47;18.42;;;;;;;;;;12836466;19;20300;-63
2022/12/16 00:37:02;;;;;;;40.70;14.65;;;;;;;;;;12835753;19;20450;-63
2022/12/16 00:41:19;;;;;;;31.05;12.50;;;;;;;;;;12835111;19;20007;-63
2022/12/16 00:45:37;;;;;;;24.05;11.82;;;;;;;;;;12833653;19;20793;-63
2022/12/16 00:49:54;;;;;;;27.00;12.20;;;;;;;;;;12836066;19;20327;-63
2022/12/16 00:54:12;;;;;;;29.85;12.35;;;;;;;;;;12833930;19;20011;-63
2022/12/16 00:58:29;;;;;;;24.35;11.10;;;;;;;;;;12832316;19;20438;-63
2022/12/16 01:02:47;;;;;;;34.03;14.15;;;;;;;;;;12834419;19;20503;-63
2022/12/16 01:07:05;;;;;;;26.85;11.65;;;;;;;;;;12833540;19;20366;-63
2022/12/16 01:11:22;;;;;;;68.07;19.77;;;;;;;;;;12841221;19;20010;-63
2022/12/16 01:15:39;;;;;;;41.33;14.50;;;;;;;;;;12850149;19;20453;-63
2022/12/16 01:19:56;;;;;;;41.90;13.70;;;;;;;;;;12847282;19;20429;-64
2022/12/16 01:24:13;;;;;;;49.33;19.10;;;;;;;;;;12845183;19;20402;-64
2022/12/16 01:28:30;;;;;;;35.95;14.30;;;;;;;;;;12845481;19;20477;-63
2022/12/16 01:32:47;;;;;;;47.17;17.73;;;;;;;;;;12846286;19;20486;-63
2022/12/16 01:37:04;;;;;;;34.53;14.13;;;;;;;;;;12844444;19;20465;-64
2022/12/16 01:41:22;;;;;;;49.05;15.63;;;;;;;;;;12843077;19;20721;-64
2022/12/16 01:45:39;;;;;;;39.45;17.05;;;;;;;;;;12843795;19;20314;-63
2022/12/16 01:50:08;;;;;;;42.38;18.00;;;;;;;;;;12845010;19;20524;-63
2022/12/16 01:54:42;;;;;;;20.02;10.00;;;;;;;;;;12842348;19;20449;-63
2022/12/16 01:59:00;;;;;;;22.13;10.05;;;;;;;;;;12844282;19;20414;-63
2022/12/16 02:03:17;;;;;;;12.73;6.85;;;;;;;;;;12842782;19;20350;-63
2022/12/16 02:07:35;;;;;;;38.75;18.05;;;;;;;;;;12843338;19;20414;-63
2022/12/16 02:12:15;;;;;;;13.52;6.20;;;;;;;;;;12843503;19;20323;-63
2022/12/16 02:17:12;;;;;;;18.65;7.70;;;;;;;;;;12842791;19;20425;-63
2022/12/16 02:22:22;;;;;;;42.78;18.80;;;;;;;;;;12841832;19;20430;-63
2022/12/16 02:26:56;;;;;;;42.35;18.17;;;;;;;;;;12839897;19;20364;-63
2022/12/16 02:31:31;;;;;;;46.55;18.77;;;;;;;;;;12839800;19;20440;-62
2022/12/16 02:36:39;;;;;;;30.13;13.40;;;;;;;;;;12843352;19;20370;-63
2022/12/16 02:41:02;;;;;;;43.38;18.85;;;;;;;;;;12837667;19;20438;-63
2022/12/16 02:45:26;;;;;;;34.05;16.05;;;;;;;;;;12840305;19;20465;-63
2022/12/16 02:49:49;;;;;;;25.02;11.65;;;;;;;;;;12842112;19;20440;-63
2022/12/16 02:54:08;;;;;;;36.45;14.63;;;;;;;;;;12839385;19;20014;-64
2022/12/16 02:58:49;;;;;;;25.25;10.50;;;;;;;;;;12838645;19;20342;-63
2022/12/16 03:03:18;;;;;;;26.73;12.32;;;;;;;;;;12838008;19;20453;-63
2022/12/16 03:07:40;;;;;;;23.77;11.85;;;;;;;;;;12839890;19;20514;-63
2022/12/16 03:12:01;;;;;;;7.40;4.20;;;;;;;;;;12838368;19;20018;-63
2022/12/16 03:16:23;;;;;;;22.95;11.15;;;;;;;;;;12839951;19;20113;-63
2022/12/16 03:20:56;;;;;;;27.08;13.32;;;;;;;;;;12840197;19;20326;-63
2022/12/16 03:25:13;;;;;;;20.65;10.20;;;;;;;;;;12836731;19;20391;-63
2022/12/16 03:29:54;;;;;;;30.27;13.43;;;;;;;;;;12838202;19;20490;-63
2022/12/16 03:34:21;;;;;;;22.48;11.07;;;;;;;;;;12836395;19;20488;-63
2022/12/16 03:38:40;;;;;;;17.17;8.37;;;;;;;;;;12839093;19;20351;-63
2022/12/16 03:42:57;;;;;;;;;;;;;;;;;;12836873;19;20015;-63
2022/12/16 03:47:14;;;;;;;26.35;12.43;;;;;;;;;;12836760;19;20211;-63
2022/12/16 03:51:39;;;;;;;23.08;11.32;;;;;;;;;;12837669;19;20006;-63
2022/12/16 03:55:56;;;;;;;23.00;10.88;;;;;;;;;;12837803;19;20429;-63
2022/12/16 04:00:14;;;;;;;24.38;10.70;;;;;;;;;;12837277;19;20492;-63
2022/12/16 04:04:31;;;;;;;22.02;10.75;;;;;;;;;;12836967;19;20409;-63
2022/12/16 04:08:48;;;;;;;28.20;11.88;;;;;;;;;;12839737;19;20046;-63
2022/12/16 04:27:26;;;;;;;23.50;12.45;;;;;;;;;;12835950;19;20364;-63
2022/12/16 04:31:43;;;;;;;25.17;11.05;;;;;;;;;;12835991;19;20342;-63
